createdAt,value
2022-09-07T00:00:31.533Z,100954.03
2022-09-07T00:03:00.283Z,100957.72
2022-09-07T00:05:28.281Z,100953.56
2022-09-07T00:07:55.481Z,100936.63
2022-09-07T00:10:23.347Z,100940.19
2022-09-07T00:12:50.638Z,100922.09
2022-09-07T00:15:18.208Z,100928.09
2022-09-07T00:17:45.108Z,100921.72
2022-09-07T00:20:13.370Z,100921.66
2022-09-07T00:22:40.240Z,100924.81
2022-09-07T00:25:07.853Z,100928.81
2022-09-07T00:27:34.798Z,100927.56
2022-09-07T00:30:01.622Z,100926.31
2022-09-07T00:32:28.488Z,100933.13
2022-09-07T00:34:55.332Z,100924.59
2022-09-07T00:37:23.941Z,100919.72
2022-09-07T00:39:51.974Z,100922.22
2022-09-07T00:42:20.018Z,100927.06
2022-09-07T00:45:10.183Z,100926.38
2022-09-07T00:47:47.572Z,100921.28
2022-09-07T00:50:20.275Z,100935.50
2022-09-07T00:52:53.209Z,100931.78
2022-09-07T00:55:20.856Z,100941.44
2022-09-07T00:57:52.223Z,100939.56
2022-09-07T01:00:19.705Z,100938.38
2022-09-07T01:02:48.597Z,100935.63
2022-09-07T01:05:22.820Z,100939.19
2022-09-07T01:07:51.146Z,100950.56
2022-09-07T01:10:18.816Z,100952.22
2022-09-07T01:12:45.673Z,100953.25
2022-09-07T01:15:12.659Z,100957.28
2022-09-07T01:17:54.832Z,100951.59
2022-09-07T01:20:54.012Z,100952.53
2022-09-07T01:23:52.589Z,100956.63
2022-09-07T01:26:52.986Z,100958.78
2022-09-07T01:29:28.566Z,100961.59
2022-09-07T01:32:02.419Z,100958.44
2022-09-07T01:34:29.545Z,100962.50
2022-09-07T01:37:01.772Z,100968.88
2022-09-07T01:39:35.645Z,100959.22
2022-09-07T01:42:08.652Z,100964.06
2022-09-07T01:44:41.805Z,100966.88
2022-09-07T01:47:15.406Z,100962.84
2022-09-07T01:49:48.535Z,100967.31
2022-09-07T01:52:22.039Z,100974.53
2022-09-07T01:54:55.255Z,100968.00
2022-09-07T01:57:29.478Z,100976.03
2022-09-07T02:00:04.580Z,100971.63
2022-09-07T02:02:38.238Z,100969.13
2022-09-07T02:05:09.673Z,100981.56
2022-09-07T02:07:42.491Z,100973.81
2022-09-07T02:10:14.179Z,100978.25
2022-09-07T02:12:47.669Z,100971.81
2022-09-07T02:15:21.671Z,100973.69
2022-09-07T02:17:52.252Z,100972.44
2022-09-07T02:20:23.307Z,100976.28
2022-09-07T02:22:55.731Z,100966.78
2022-09-07T02:25:24.713Z,100962.78
2022-09-07T02:27:55.564Z,100970.81
2022-09-07T02:30:23.905Z,100967.53
2022-09-07T02:32:50.960Z,100964.72
2022-09-07T02:35:18.102Z,100970.69
2022-09-07T02:37:45.537Z,100971.97
2022-09-07T02:40:12.991Z,100977.53
2022-09-07T02:42:39.956Z,100979.06
2022-09-07T02:45:10.800Z,100974.19
2022-09-07T02:48:01.456Z,100986.25
2022-09-07T02:51:02.515Z,100997.53
2022-09-07T02:54:03.633Z,100996.72
2022-09-07T02:56:44.420Z,100997.59
2022-09-07T02:59:27.362Z,100995.09
2022-09-07T03:02:01.684Z,100985.31
2022-09-07T03:04:40.792Z,100998.50
2022-09-07T03:07:11.611Z,100971.81
2022-09-07T03:09:43.570Z,100971.31
2022-09-07T03:12:10.666Z,100969.91
2022-09-07T03:14:40.113Z,100971.75
2022-09-07T03:17:07.793Z,100972.56
2022-09-07T03:19:36.195Z,100979.31
2022-09-07T03:22:03.901Z,100970.81
2022-09-07T03:24:31.189Z,100981.38
2022-09-07T03:26:58.505Z,100983.09
2022-09-07T03:29:25.508Z,100987.53
2022-09-07T03:31:52.342Z,100985.59
2022-09-07T03:34:19.253Z,100986.88
2022-09-07T03:36:47.630Z,100983.59
2022-09-07T03:39:14.566Z,100986.81
2022-09-07T03:41:41.570Z,100987.53
2022-09-07T03:44:08.785Z,100983.53
2022-09-07T03:46:35.702Z,100992.72
2022-09-07T03:49:02.802Z,100993.84
2022-09-07T03:51:29.853Z,100983.81
2022-09-07T03:54:00.399Z,100995.53
2022-09-07T03:56:27.621Z,100975.03
2022-09-07T03:58:55.073Z,100987.16
2022-09-07T04:01:23.738Z,100981.91
2022-09-07T04:03:51.539Z,100982.25
2022-09-07T04:06:19.492Z,100969.09
2022-09-07T04:08:46.920Z,100965.84
2022-09-07T04:11:17.453Z,100966.56
2022-09-07T04:13:44.705Z,100958.94
2022-09-07T04:16:14.464Z,100955.66
2022-09-07T04:18:41.418Z,100953.53
2022-09-07T04:21:08.366Z,100950.19
2022-09-07T04:23:37.573Z,100938.13
2022-09-07T04:26:04.388Z,100946.56
2022-09-07T04:28:38.310Z,100939.69
2022-09-07T04:31:05.380Z,100943.69
2022-09-07T04:33:32.619Z,100939.69
2022-09-07T04:36:00.734Z,100935.97
2022-09-07T04:38:28.297Z,100946.31
2022-09-07T04:40:59.525Z,100941.44
2022-09-07T04:43:26.583Z,100931.75
2022-09-07T04:45:54.936Z,100936.47
2022-09-07T04:48:21.991Z,100938.19
2022-09-07T04:50:48.864Z,100932.84
2022-09-07T04:53:15.728Z,100936.41
2022-09-07T04:55:42.566Z,100945.94
2022-09-07T04:58:09.798Z,100933.88
2022-09-07T05:00:39.157Z,100936.34
2022-09-07T05:03:07.421Z,100939.56
2022-09-07T05:05:37.852Z,100923.53
2022-09-07T05:08:04.827Z,100924.69
2022-09-07T05:10:31.889Z,100935.94
2022-09-07T05:12:58.752Z,100930.31
2022-09-07T05:15:25.525Z,100935.59
2022-09-07T05:17:52.368Z,100937.22
2022-09-07T05:20:21.420Z,100944.09
2022-09-07T05:22:48.387Z,100940.09
2022-09-07T05:25:15.339Z,100936.13
2022-09-07T05:27:42.452Z,100931.66
2022-09-07T05:32:57.435Z,100938.19
2022-09-07T05:35:25.715Z,100938.28
2022-09-07T05:37:52.796Z,100932.25
2022-09-07T05:40:19.682Z,100935.53
2022-09-07T05:42:46.568Z,100944.03
2022-09-07T05:45:13.512Z,100936.13
2022-09-07T05:47:40.414Z,100935.38
2022-09-07T05:50:09.202Z,100939.84
2022-09-07T05:52:37.419Z,100940.66
2022-09-07T05:55:19.614Z,100930.66
2022-09-07T05:57:51.674Z,100930.34
2022-09-07T06:00:21.631Z,100930.84
2022-09-07T06:02:48.696Z,100934.13
2022-09-07T06:05:15.688Z,100942.81
2022-09-07T06:07:48.028Z,100948.94
2022-09-07T06:13:02.153Z,100946.25
2022-09-07T06:15:29.015Z,100946.03
2022-09-07T06:17:55.950Z,100941.72
2022-09-07T06:20:22.873Z,100949.59
2022-09-07T06:22:51.021Z,100955.09
2022-09-07T06:25:17.823Z,100944.63
2022-09-07T06:27:48.593Z,100950.78
2022-09-07T06:30:15.479Z,100949.06
2022-09-07T06:35:14.759Z,100959.41
2022-09-07T06:37:42.159Z,100960.41
2022-09-07T06:40:11.726Z,100962.75
2022-09-07T06:42:39.045Z,100966.69
2022-09-07T06:45:06.750Z,100966.41
2022-09-07T06:47:33.558Z,100967.19
2022-09-07T06:50:00.377Z,100964.91
2022-09-07T06:52:28.241Z,100968.22
2022-09-07T06:57:24.200Z,100975.34
2022-09-07T06:59:51.016Z,100967.91
2022-09-07T07:02:17.804Z,100973.28
2022-09-07T07:04:46.595Z,100970.81
2022-09-07T07:07:14.068Z,100973.09
2022-09-07T07:09:41.923Z,100972.03
2022-09-07T07:12:08.864Z,100969.00
2022-09-07T07:14:38.682Z,100977.53
2022-09-07T07:17:08.103Z,100970.75
2022-09-07T07:19:34.881Z,100963.59
2022-09-07T07:24:48.491Z,100946.13
2022-09-07T07:27:15.539Z,100957.88
2022-09-07T07:29:43.744Z,100964.81
2022-09-07T07:32:10.600Z,100964.41
2022-09-07T07:34:37.482Z,100962.41
2022-09-07T07:37:04.310Z,100972.84
2022-09-07T07:42:18.441Z,100974.06
2022-09-07T07:44:46.903Z,100976.06
2022-09-07T07:47:13.980Z,100973.63
2022-09-07T07:49:40.786Z,100992.28
2022-09-07T07:54:54.309Z,100978.72
2022-09-07T07:57:21.147Z,100977.66
2022-09-07T07:59:49.564Z,100978.53
2022-09-07T08:02:17.354Z,100974.00
2022-09-07T08:04:44.456Z,100981.28
2022-09-07T08:07:14.426Z,100981.59
2022-09-07T08:09:42.495Z,100977.16
2022-09-07T08:12:11.377Z,100987.06
2022-09-07T08:14:42.408Z,100978.53
2022-09-07T08:17:12.791Z,100982.06
2022-09-07T08:19:57.335Z,100990.63
2022-09-07T08:22:34.717Z,100993.31
2022-09-07T08:25:01.924Z,100993.47
2022-09-07T08:27:29.403Z,100993.47
2022-09-07T08:29:56.399Z,100994.28
2022-09-07T08:32:24.755Z,100990.28
2022-09-07T08:34:51.598Z,100988.66
2022-09-07T08:37:18.577Z,100980.53
2022-09-07T08:39:45.360Z,100977.22
2022-09-07T08:42:26.254Z,100991.81
2022-09-07T08:44:57.827Z,100990.22
2022-09-07T08:47:32.569Z,100982.50
2022-09-07T08:50:04.731Z,100995.22
2022-09-07T08:52:45.795Z,100988.38
2022-09-07T08:55:19.019Z,100988.31
2022-09-07T08:57:51.654Z,100986.72
2022-09-07T09:00:19.235Z,100987.94
2022-09-07T09:03:28.558Z,100989.56
2022-09-07T09:05:44.987Z,100989.94
2022-09-07T09:08:22.827Z,100993.59
2022-09-07T09:10:58.576Z,101002.47
2022-09-07T09:13:38.094Z,101003.75
2022-09-07T09:16:11.419Z,100996.03
2022-09-07T09:18:52.535Z,100998.03
2022-09-07T09:21:20.267Z,100994.03
2022-09-07T09:29:15.865Z,100992.00
2022-09-07T09:31:42.813Z,100994.41
2022-09-07T09:34:13.310Z,101000.50
2022-09-07T09:36:46.601Z,100993.59
2022-09-07T09:39:31.371Z,100995.97
2022-09-07T09:42:01.933Z,100995.13
2022-09-07T09:44:33.792Z,100988.59
2022-09-07T09:49:51.531Z,100992.09
2022-09-07T09:52:30.394Z,100992.13
2022-09-07T09:55:17.230Z,100978.38
2022-09-07T10:01:21.140Z,100985.53
2022-09-07T10:06:18.674Z,100973.44
2022-09-07T10:08:55.321Z,100977.09
2022-09-07T10:14:29.617Z,100972.22
2022-09-07T10:30:56.527Z,100951.50
2022-09-07T10:33:34.458Z,100949.38
2022-09-07T10:36:10.844Z,100958.34
2022-09-07T10:38:45.099Z,100959.75
2022-09-07T10:41:11.966Z,100953.28
2022-09-07T10:43:44.986Z,100949.19
2022-09-07T10:46:57.307Z,100947.91
2022-09-07T10:49:28.193Z,100946.88
2022-09-07T10:52:13.658Z,100959.31
2022-09-07T10:54:48.677Z,100958.75
2022-09-07T10:57:33.478Z,100950.88
2022-09-07T11:00:10.537Z,100947.19
2022-09-07T11:06:13.970Z,100951.75
2022-09-07T11:09:19.385Z,100955.91
2022-09-07T11:12:07.247Z,100965.28
2022-09-07T11:14:41.541Z,100953.50
2022-09-07T11:17:15.135Z,100956.34
2022-09-07T11:19:49.171Z,100944.88
2022-09-07T11:22:23.052Z,100951.56
2022-09-07T11:27:47.355Z,100950.00
2022-09-07T11:30:20.005Z,100957.06
2022-09-07T11:32:54.138Z,100949.31
2022-09-07T11:35:30.207Z,100946.75
2022-09-07T11:38:03.794Z,100934.66
2022-09-07T11:40:34.149Z,100936.91
2022-09-07T11:43:11.569Z,100929.88
2022-09-07T11:45:44.485Z,100931.88
2022-09-07T11:48:19.608Z,100926.19
2022-09-07T11:50:53.414Z,100930.94
2022-09-07T11:53:24.307Z,100940.38
2022-09-07T11:55:56.548Z,100932.28
2022-09-07T11:58:42.544Z,100921.59
2022-09-07T12:01:20.424Z,100930.41
2022-09-07T12:04:24.725Z,100928.97
2022-09-07T12:07:17.020Z,100924.91
2022-09-07T12:09:57.270Z,100927.44
2022-09-07T12:12:50.598Z,100928.31
2022-09-07T12:15:30.288Z,100926.50
2022-09-07T12:18:16.760Z,100921.63
2022-09-07T12:20:45.414Z,100922.59
2022-09-07T12:23:26.736Z,100933.09
2022-09-07T12:26:32.166Z,100922.78
2022-09-07T12:29:20.146Z,100921.53
2022-09-07T12:34:59.399Z,100913.16
2022-09-07T12:37:45.429Z,100916.06
2022-09-07T12:40:46.137Z,100916.59
2022-09-07T12:43:52.536Z,100912.91
2022-09-07T12:46:41.778Z,100901.22
2022-09-07T12:49:32.200Z,100899.19
2022-09-07T12:52:15.125Z,100888.97
2022-09-07T12:55:04.392Z,100894.53
2022-09-07T12:57:46.411Z,100877.63
2022-09-07T13:00:20.497Z,100884.66
2022-09-07T13:07:01.677Z,100886.75
2022-09-07T13:09:23.817Z,100885.75
2022-09-07T13:11:50.653Z,100883.00
2022-09-07T13:14:23.259Z,100882.66
2022-09-07T13:17:29.496Z,100883.03
2022-09-07T13:20:21.373Z,100876.16
2022-09-07T13:22:55.712Z,100871.19
2022-09-07T13:25:45.669Z,100873.09
2022-09-07T13:28:37.445Z,100871.44
2022-09-07T13:31:27.832Z,100878.22
2022-09-07T13:33:55.082Z,100878.41
2022-09-07T13:36:39.015Z,100869.44
2022-09-07T13:39:11.501Z,100870.38
2022-09-07T13:41:43.345Z,100859.00
2022-09-07T13:44:25.909Z,100856.91
2022-09-07T13:47:02.917Z,100861.53
2022-09-07T13:49:43.418Z,100859.94
2022-09-07T13:52:15.766Z,100848.53
2022-09-07T13:54:58.642Z,100845.97
2022-09-07T13:57:32.232Z,100835.97
2022-09-07T13:59:59.374Z,100846.56
2022-09-07T14:02:32.304Z,100847.78
2022-09-07T14:05:00.714Z,100849.44
2022-09-07T14:07:29.227Z,100842.00
2022-09-07T14:10:10.388Z,100846.28
2022-09-07T14:12:43.727Z,100833.69
2022-09-07T14:15:17.096Z,100832.66
2022-09-07T14:17:46.353Z,100834.19
2022-09-07T14:20:14.602Z,100828.91
2022-09-07T14:22:42.829Z,100833.50
2022-09-07T14:25:16.337Z,100835.00
2022-09-07T14:27:45.497Z,100828.47
2022-09-07T14:30:21.988Z,100823.09
2022-09-07T14:32:53.108Z,100825.06
2022-09-07T14:35:22.507Z,100824.34
2022-09-07T14:37:50.759Z,100812.63
2022-09-07T14:40:21.807Z,100820.78
2022-09-07T14:42:49.915Z,100817.88
2022-09-07T14:45:19.138Z,100816.13
2022-09-07T14:47:47.173Z,100810.50
2022-09-07T14:50:21.279Z,100812.63
2022-09-07T14:53:34.233Z,100812.38
2022-09-07T14:55:39.399Z,100806.63
2022-09-07T14:58:30.300Z,100796.34
2022-09-07T15:03:59.167Z,100792.03
2022-09-07T15:09:29.141Z,100792.88
2022-09-07T15:12:04.338Z,100791.50
2022-09-07T15:14:31.394Z,100782.56
2022-09-07T15:19:47.167Z,100776.13
2022-09-07T15:22:15.572Z,100779.78
2022-09-07T15:24:42.273Z,100777.63
2022-09-07T15:27:18.974Z,100778.56
2022-09-07T15:29:45.817Z,100780.13
2022-09-07T15:32:12.935Z,100778.41
2022-09-07T15:34:39.765Z,100782.22
2022-09-07T15:38:01.194Z,100769.00
2022-09-07T15:39:55.694Z,100773.50
2022-09-07T15:45:09.867Z,100769.56
2022-09-07T15:47:47.985Z,100760.00
2022-09-07T15:50:18.533Z,100772.38
2022-09-07T15:52:46.435Z,100773.97
2022-09-07T15:55:17.672Z,100770.59
2022-09-07T15:57:49.213Z,100767.41
2022-09-07T16:00:17.464Z,100763.25
2022-09-07T16:05:31.646Z,100756.56
2022-09-07T16:11:04.758Z,100749.78
2022-09-07T16:13:32.685Z,100756.88
2022-09-07T16:16:00.555Z,100751.75
2022-09-07T16:18:31.382Z,100754.38
2022-09-07T16:21:04.810Z,100750.97
2022-09-07T16:23:31.557Z,100745.16
2022-09-07T16:26:01.540Z,100748.47
2022-09-07T16:28:29.231Z,100748.78
2022-09-07T16:30:56.575Z,100748.16
2022-09-07T16:33:31.279Z,100751.88
2022-09-07T16:36:06.207Z,100748.63
2022-09-07T16:38:49.054Z,100746.66
2022-09-07T16:41:20.078Z,100745.03
2022-09-07T16:43:47.133Z,100743.00
2022-09-07T16:46:16.693Z,100744.66
2022-09-07T16:48:44.114Z,100743.13
2022-09-07T16:51:13.632Z,100749.94
2022-09-07T16:53:40.633Z,100737.72
2022-09-07T16:56:10.416Z,100741.78
2022-09-07T16:58:40.493Z,100736.38
2022-09-07T17:01:08.911Z,100735.22
2022-09-07T17:03:36.439Z,100732.00
2022-09-07T17:06:05.418Z,100723.03
2022-09-07T17:08:33.694Z,100730.00
2022-09-07T17:11:01.072Z,100727.56
2022-09-07T17:13:28.380Z,100732.88
2022-09-07T17:16:01.998Z,100730.53
2022-09-07T17:21:16.611Z,100720.97
2022-09-07T17:23:51.069Z,100721.81
2022-09-07T17:26:22.455Z,100714.13
2022-09-07T17:28:51.064Z,100714.59
2022-09-07T17:34:08.778Z,100702.09
2022-09-07T17:36:35.587Z,100703.72
2022-09-07T17:39:19.132Z,100701.69
2022-09-07T17:41:46.716Z,100702.13
2022-09-07T17:44:13.594Z,100697.66
2022-09-07T17:46:41.866Z,100688.00
2022-09-07T17:49:12.346Z,100690.03
2022-09-07T17:51:39.791Z,100697.81
2022-09-07T17:54:11.474Z,100687.28
2022-09-07T17:56:39.288Z,100690.50
2022-09-07T18:01:54.696Z,100691.38
2022-09-07T18:04:22.338Z,100700.28
2022-09-07T18:06:49.258Z,100698.66
2022-09-07T18:09:16.587Z,100701.53
2022-09-07T18:11:48.136Z,100704.78
2022-09-07T18:14:16.512Z,100704.75
2022-09-07T18:16:45.888Z,100701.53
2022-09-07T18:19:14.299Z,100709.19
2022-09-07T18:21:43.088Z,100709.63
2022-09-07T18:24:13.999Z,100706.78
2022-09-07T18:26:41.128Z,100710.00
2022-09-07T18:29:27.310Z,100701.53
2022-09-07T18:31:55.495Z,100709.63
2022-09-07T18:34:23.773Z,100709.19
2022-09-07T18:36:50.693Z,100697.88
2022-09-07T18:39:17.696Z,100704.34
2022-09-07T18:41:44.453Z,100714.06
2022-09-07T18:46:57.980Z,100707.56
2022-09-07T18:49:26.315Z,100707.13
2022-09-07T18:54:41.385Z,100694.13
2022-09-07T18:57:08.377Z,100693.72
2022-09-07T18:59:35.361Z,100694.91
2022-09-07T19:02:04.667Z,100687.19
2022-09-07T19:07:21.021Z,100696.06
2022-09-07T19:09:48.435Z,100700.06
2022-09-07T19:12:15.612Z,100702.03
2022-09-07T19:14:42.492Z,100702.81
2022-09-07T19:17:11.011Z,100700.78
2022-09-07T19:19:39.708Z,100697.13
2022-09-07T19:22:06.558Z,100697.56
2022-09-07T19:24:33.540Z,100699.19
2022-09-07T19:27:01.161Z,100699.97
2022-09-07T19:29:29.173Z,100704.81
2022-09-07T19:32:05.571Z,100709.63
2022-09-07T19:34:32.834Z,100707.59
2022-09-07T19:37:01.350Z,100702.75
2022-09-07T19:39:28.321Z,100700.28
2022-09-07T19:41:55.133Z,100702.28
2022-09-07T19:44:22.129Z,100697.78
2022-09-07T19:46:50.173Z,100699.00
2022-09-07T19:49:17.105Z,100698.09
2022-09-07T19:51:44.053Z,100692.78
2022-09-07T19:54:13.648Z,100697.16
2022-09-07T19:56:42.748Z,100698.75
2022-09-07T19:59:09.807Z,100685.00
2022-09-07T20:01:37.745Z,100687.75
2022-09-07T20:04:06.815Z,100688.47
2022-09-07T20:06:36.667Z,100683.53
2022-09-07T20:09:03.623Z,100679.38
2022-09-07T20:11:32.480Z,100679.34
2022-09-07T20:13:59.587Z,100670.78
2022-09-07T20:16:28.232Z,100661.50
2022-09-07T20:18:55.276Z,100663.00
2022-09-07T20:21:23.859Z,100652.88
2022-09-07T20:23:51.267Z,100659.25
2022-09-07T20:26:20.800Z,100653.56
2022-09-07T20:29:05.873Z,100644.59
2022-09-07T20:31:40.275Z,100643.69
2022-09-07T20:34:07.111Z,100652.94
2022-09-07T20:36:33.857Z,100642.94
2022-09-07T20:39:00.946Z,100638.84
2022-09-07T20:41:29.741Z,100641.31
2022-09-07T20:44:00.030Z,100637.25
2022-09-07T20:46:28.486Z,100640.41
2022-09-07T20:48:55.938Z,100646.03
2022-09-07T20:51:23.102Z,100653.22
2022-09-07T20:53:50.334Z,100649.97
2022-09-07T20:56:18.960Z,100651.63
2022-09-07T20:58:47.045Z,100649.63
2022-09-07T21:01:17.844Z,100649.31
2022-09-07T21:03:49.008Z,100646.97
2022-09-07T21:06:16.960Z,100638.88
2022-09-07T21:08:45.616Z,100648.56
2022-09-07T21:11:15.191Z,100644.19
2022-09-07T21:13:42.789Z,100642.16
2022-09-07T21:16:11.687Z,100643.28
2022-09-07T21:18:41.037Z,100630.72
2022-09-07T21:21:23.935Z,100640.75
2022-09-07T21:23:55.737Z,100636.16
2022-09-07T21:26:22.771Z,100643.31
2022-09-07T21:28:54.360Z,100643.63
2022-09-07T21:31:21.292Z,100638.72
2022-09-07T21:33:54.300Z,100641.41
2022-09-07T21:36:21.234Z,100642.19
2022-09-07T21:38:48.380Z,100636.91
2022-09-07T21:41:19.614Z,100637.75
2022-09-07T21:43:46.716Z,100648.69
2022-09-07T21:46:16.428Z,100642.25
2022-09-07T21:48:43.947Z,100646.28
2022-09-07T21:51:12.896Z,100643.91
2022-09-07T21:53:40.138Z,100645.59
2022-09-07T21:56:11.088Z,100645.19
2022-09-07T21:58:38.588Z,100646.06
2022-09-07T22:01:14.808Z,100642.47
2022-09-07T22:03:55.325Z,100639.22
2022-09-07T22:06:43.983Z,100644.13
2022-09-07T22:09:14.492Z,100638.13
2022-09-07T22:11:50.731Z,100628.94
2022-09-07T22:14:35.625Z,100623.66
2022-09-07T22:17:02.809Z,100620.91
2022-09-07T22:19:40.112Z,100625.78
2022-09-07T22:22:08.710Z,100634.28
2022-09-07T22:24:35.481Z,100635.50
2022-09-07T22:27:02.267Z,100629.53
2022-09-07T22:29:29.123Z,100627.53
2022-09-07T22:31:56.044Z,100625.09
2022-09-07T22:34:22.884Z,100617.53
2022-09-07T22:36:49.750Z,100618.31
2022-09-07T22:39:18.923Z,100615.88
2022-09-07T22:41:47.469Z,100615.94
2022-09-07T22:44:16.028Z,100619.13
2022-09-07T22:46:45.166Z,100632.03
2022-09-07T22:49:13.180Z,100623.66
2022-09-07T22:51:40.007Z,100618.34
2022-09-07T22:54:07.247Z,100621.91
2022-09-07T22:56:37.306Z,100607.88
2022-09-07T22:59:07.399Z,100595.00
2022-09-07T23:01:41.157Z,100595.75
2022-09-07T23:04:11.572Z,100588.97
2022-09-07T23:06:40.495Z,100598.69
2022-09-07T23:09:10.341Z,100593.09
2022-09-07T23:11:47.126Z,100600.78
2022-09-07T23:14:16.304Z,100593.94
2022-09-07T23:16:43.739Z,100597.56
2022-09-07T23:19:22.261Z,100599.19
2022-09-07T23:21:49.061Z,100600.44
2022-09-07T23:24:17.977Z,100598.00
2022-09-07T23:26:47.151Z,100591.59
2022-09-07T23:29:15.145Z,100585.50
2022-09-07T23:31:42.599Z,100577.28
2022-09-07T23:34:09.599Z,100583.66
2022-09-07T23:36:37.148Z,100594.81
2022-09-07T23:39:04.271Z,100599.19
2022-09-07T23:41:31.577Z,100599.13
2022-09-07T23:44:00.512Z,100593.44
2022-09-07T23:46:27.469Z,100580.03
2022-09-07T23:48:54.318Z,100581.19
2022-09-07T23:51:24.207Z,100587.22
2022-09-07T23:53:51.954Z,100586.34
2022-09-07T23:56:18.797Z,100580.31
2022-09-07T23:58:45.591Z,100575.00
